Time;durP1;ratioP1;P1;durP2;ratioP2;P2;SDS_P1;SDS_P2;PMS_P1;PMS_P2;Temp;Humidity;BMP_temperature;BMP_pressure;BME280_temperature;BME280_humidity;BME280_pressure;Samples;Min_cycle;Max_cycle;Signal;HPM_P1;HPM_P2
2020/12/18 00:01:29;;;;;;;52.45;24.18;;;;;;;-0.38;88.85;101212.68;1737295;80;21546;-73
2020/12/18 00:04:00;;;;;;;51.33;24.03;;;;;;;-0.36;88.87;101215.23;1724505;82;21156;-75
2020/12/18 00:06:34;;;;;;;51.17;24.20;;;;;;;-0.35;88.84;101211.03;1737124;80;21154;-77
2020/12/18 00:09:05;;;;;;;53.80;24.07;;;;;;;-0.31;88.87;101206.20;1722245;83;21678;-78
2020/12/18 00:11:33;;;;;;;50.23;23.67;;;;;;;-0.31;88.76;101214.27;1735528;80;21137;-76
2020/12/18 00:14:01;;;;;;;53.70;24.30;;;;;;;-0.30;88.74;101215.94;1750109;82;21742;-78
2020/12/18 00:16:32;;;;;;;49.63;21.87;;;;;;;-0.28;88.79;101213.44;1733658;80;21155;-76
2020/12/18 00:18:59;;;;;;;45.17;22.37;;;;;;;-0.27;88.65;101214.29;1722024;82;21630;-75
2020/12/18 00:21:27;;;;;;;50.17;22.05;;;;;;;-0.27;88.71;101210.25;1729053;80;21176;-73
2020/12/18 00:23:54;;;;;;;50.52;23.10;;;;;;;-0.26;88.75;101207.92;1721732;83;21157;-73
2020/12/18 00:26:22;;;;;;;51.03;24.10;;;;;;;-0.23;88.68;101207.62;1738586;80;21159;-75
2020/12/18 00:28:50;;;;;;;48.55;23.07;;;;;;;-0.26;88.47;101206.58;1723352;80;22178;-78
2020/12/18 00:31:18;;;;;;;50.98;23.90;;;;;;;-0.27;88.60;101205.73;1737917;80;21164;-78
2020/12/18 00:33:47;;;;;;;52.83;23.80;;;;;;;-0.25;88.63;101215.83;1749911;80;21615;-79
2020/12/18 00:36:15;;;;;;;52.55;24.50;;;;;;;-0.24;88.63;101205.42;1737842;82;21112;-79
2020/12/18 00:38:43;;;;;;;51.85;25.02;;;;;;;-0.23;88.62;101196.86;1698824;82;21160;-80
2020/12/18 00:41:15;;;;;;;55.93;24.33;;;;;;;-0.22;88.56;101199.87;1729213;81;21315;-77
2020/12/18 00:43:43;;;;;;;55.65;24.82;;;;;;;-0.20;88.54;101205.94;1742753;80;21132;-77
2020/12/18 00:46:11;;;;;;;53.02;23.85;;;;;;;-0.19;88.54;101204.45;1744677;81;21156;-76
2020/12/18 00:48:39;;;;;;;53.25;23.10;;;;;;;-0.19;88.47;101203.60;1731649;80;21140;-78
2020/12/18 00:51:09;;;;;;;53.80;23.33;;;;;;;-0.19;88.48;101195.53;1736525;82;21615;-78
2020/12/18 00:53:37;;;;;;;52.40;22.95;;;;;;;-0.19;88.54;101196.88;1722007;80;21159;-77
2020/12/18 00:56:08;;;;;;;52.90;22.40;;;;;;;-0.17;88.54;101190.83;1728464;80;21515;-78
2020/12/18 00:58:44;;;;;;;51.93;21.73;;;;;;;-0.16;88.47;101193.88;1733532;80;21682;-78
2020/12/18 01:01:12;;;;;;;51.83;22.07;;;;;;;-0.14;88.43;101194.06;1729092;80;21632;-80
2020/12/18 01:03:41;;;;;;;46.28;22.27;;;;;;;-0.13;88.37;101189.53;1735707;80;21188;-77
2020/12/18 01:06:12;;;;;;;50.50;23.12;;;;;;;-0.12;88.36;101189.86;1734497;82;21161;-78
2020/12/18 01:08:42;;;;;;;52.27;23.67;;;;;;;-0.12;88.35;101194.75;1723639;83;21643;-80
2020/12/18 01:11:11;;;;;;;50.47;22.13;;;;;;;-0.13;88.34;101189.53;1735182;80;21694;-80
2020/12/18 01:13:40;;;;;;;45.30;21.80;;;;;;;-0.15;88.31;101186.98;1738889;81;21206;-79
2020/12/18 01:16:12;;;;;;;48.45;21.27;;;;;;;-0.13;88.43;101182.81;1723272;81;21617;-76
2020/12/18 01:18:41;;;;;;;53.83;24.10;;;;;;;-0.12;88.48;101183.13;1729534;82;21768;-77
2020/12/18 01:21:11;;;;;;;53.37;24.33;;;;;;;-0.11;88.36;101187.03;1730031;82;21122;-78
2020/12/18 01:23:41;;;;;;;50.73;22.30;;;;;;;-0.13;88.25;101179.59;1739159;82;21153;-77
2020/12/18 01:26:10;;;;;;;48.17;22.27;;;;;;;-0.13;88.26;101179.59;1720919;82;21271;-78
2020/12/18 01:28:38;;;;;;;48.78;22.85;;;;;;;-0.17;88.19;101174.20;1738984;82;21152;-78
2020/12/18 01:31:06;;;;;;;47.75;22.98;;;;;;;-0.20;88.27;101175.84;1738505;80;21140;-79
2020/12/18 01:33:35;;;;;;;50.73;23.07;;;;;;;-0.22;88.35;101175.66;1759248;81;21573;-78
2020/12/18 01:36:05;;;;;;;48.07;22.17;;;;;;;-0.23;88.48;101178.03;1749253;80;21275;-78
2020/12/18 01:38:34;;;;;;;51.30;23.30;;;;;;;-0.20;88.56;101181.72;1711971;82;21157;-78
2020/12/18 01:41:01;;;;;;;52.38;23.92;;;;;;;-0.20;88.60;101175.00;1722999;81;21919;-78
2020/12/18 01:43:30;;;;;;;48.40;22.85;;;;;;;-0.19;88.62;101175.35;1723814;83;21154;-79
2020/12/18 01:45:59;;;;;;;52.17;23.30;;;;;;;-0.19;88.57;101179.39;1707912;81;21691;-79
2020/12/18 01:48:26;;;;;;;49.43;23.17;;;;;;;-0.18;88.55;101181.09;1723616;83;21515;-77
2020/12/18 01:50:56;;;;;;;46.57;21.70;;;;;;;-0.21;88.60;101182.25;1723177;83;21196;-79
2020/12/18 01:53:26;;;;;;;52.67;24.87;;;;;;;-0.19;88.71;101184.77;1723057;81;21136;-79
2020/12/18 01:56:02;;;;;;;44.73;21.03;;;;;;;-0.21;88.62;101183.59;1737004;82;21145;-79
2020/12/18 01:58:32;;;;;;;49.83;22.42;;;;;;;-0.20;88.73;101179.03;1696517;83;21631;-78
2020/12/18 02:01:04;;;;;;;46.63;21.67;;;;;;;-0.19;88.85;101178.05;1736040;82;21188;-80
2020/12/18 02:03:34;;;;;;;46.13;21.70;;;;;;;-0.16;88.89;101179.08;1730497;81;21179;-78
2020/12/18 02:06:08;;;;;;;48.10;21.37;;;;;;;-0.15;88.82;101180.75;1723509;81;21145;-79
2020/12/18 02:08:41;;;;;;;43.67;20.07;;;;;;;-0.14;88.90;101181.96;1738266;81;21311;-79
2020/12/18 02:11:23;;;;;;;43.73;20.53;;;;;;;-0.13;88.90;101178.25;1750345;82;21145;-79
2020/12/18 02:13:53;;;;;;;55.43;24.73;;;;;;;-0.09;88.88;101185.02;1734654;81;21616;-79
2020/12/18 02:16:23;;;;;;;46.57;21.17;;;;;;;-0.11;88.67;101181.65;1723508;83;21627;-78
2020/12/18 02:18:52;;;;;;;44.97;21.03;;;;;;;-0.14;88.72;101177.92;1723298;81;21122;-79
2020/12/18 02:21:20;;;;;;;43.00;19.35;;;;;;;-0.13;88.89;101182.81;1724153;81;21191;-79
2020/12/18 02:23:49;;;;;;;41.55;19.35;;;;;;;-0.10;88.91;101179.78;1723933;81;21626;-78
2020/12/18 02:26:18;;;;;;;42.95;18.60;;;;;;;-0.09;88.99;101179.64;1740386;82;21144;-77
2020/12/18 02:28:48;;;;;;;42.23;19.50;;;;;;;-0.05;88.94;101186.88;1758184;81;21155;-79
2020/12/18 02:31:18;;;;;;;41.93;19.40;;;;;;;-0.04;88.83;101183.20;1728744;82;22142;-78
2020/12/18 02:33:50;;;;;;;41.47;18.87;;;;;;;-0.04;88.67;101186.74;1713414;81;21263;-78
2020/12/18 02:36:26;;;;;;;48.67;20.67;;;;;;;-0.08;88.61;101182.66;1722364;82;21619;-80
2020/12/18 02:39:00;;;;;;;49.93;22.23;;;;;;;-0.09;88.64;101186.86;1710153;82;21659;-82
2020/12/18 02:41:28;;;;;;;48.93;22.17;;;;;;;-0.13;88.64;101187.66;1756769;80;21170;-81
2020/12/18 02:44:00;;;;;;;49.30;22.90;;;;;;;-0.16;88.73;101186.66;1722758;83;21191;-76
2020/12/18 02:46:28;;;;;;;;;;;;;;;-0.17;88.79;101188.14;1725981;81;21183;-79
2020/12/18 02:48:57;;;;;;;57.03;24.25;;;;;;;-0.19;88.80;101194.19;1724014;83;20187;-77
2020/12/18 02:51:33;;;;;;;55.77;24.27;;;;;;;-0.19;88.97;101196.88;1721709;81;21246;-77
2020/12/18 02:54:03;;;;;;;57.30;25.67;;;;;;;-0.17;89.00;101198.41;1693352;83;21171;-78
2020/12/18 02:56:50;;;;;;;55.73;24.30;;;;;;;-0.14;88.97;101198.59;1632448;86;21181;-77
2020/12/18 02:59:20;;;;;;;60.20;25.40;;;;;;;-0.13;88.88;101200.30;1659423;85;21604;-80
2020/12/18 03:01:50;;;;;;;59.20;24.13;;;;;;;-0.15;88.81;101199.09;1714924;80;21576;-80
2020/12/18 03:04:17;;;;;;;57.75;24.75;;;;;;;-0.12;88.84;101201.97;1724894;83;21136;-78
2020/12/18 03:07:08;;;;;;;60.20;25.37;;;;;;;-0.11;88.82;101200.98;1698247;82;21192;-78
2020/12/18 03:09:37;;;;;;;61.07;25.30;;;;;;;-0.11;88.82;101196.45;1716932;83;21253;-79
2020/12/18 03:12:06;;;;;;;62.17;27.58;;;;;;;-0.07;88.86;101196.47;1722176;82;21145;-78
2020/12/18 03:14:34;;;;;;;75.30;30.23;;;;;;;-0.05;88.75;101188.22;1753290;82;21271;-79
2020/12/18 03:17:04;;;;;;;68.10;29.57;;;;;;;-0.04;88.61;101199.34;1711852;81;21147;-79
2020/12/18 03:19:36;;;;;;;61.60;28.27;;;;;;;-0.08;88.55;101193.95;1721446;82;21601;-78
2020/12/18 03:22:05;;;;;;;69.50;29.03;;;;;;;-0.10;88.65;101194.08;1721186;81;21195;-78
2020/12/18 03:24:52;;;;;;;69.70;29.03;;;;;;;-0.11;88.61;101195.59;1739375;82;21157;-77
2020/12/18 03:27:25;;;;;;;73.13;30.43;;;;;;;-0.14;88.63;101195.41;1728884;81;21220;-79
2020/12/18 03:29:54;;;;;;;69.90;30.03;;;;;;;-0.15;88.64;101198.23;1752887;82;21172;-78
2020/12/18 03:32:23;;;;;;;70.60;29.77;;;;;;;-0.14;88.73;101198.10;1708972;82;21147;-76
2020/12/18 03:34:53;;;;;;;74.07;31.60;;;;;;;-0.11;88.72;101202.33;1718883;83;21192;-80
2020/12/18 03:37:22;;;;;;;76.33;32.00;;;;;;;-0.12;88.67;101204.66;1721950;81;21636;-76
2020/12/18 03:39:50;;;;;;;74.12;32.58;;;;;;;-0.12;88.72;101198.78;1712015;82;21328;-80
2020/12/18 03:42:23;;;;;;;82.20;34.67;;;;;;;-0.11;88.71;101202.33;1722845;83;21243;-76
2020/12/18 03:44:51;;;;;;;80.50;33.73;;;;;;;-0.14;88.59;101203.48;1723363;81;21200;-76
2020/12/18 03:47:21;;;;;;;84.60;34.83;;;;;;;-0.14;88.66;101195.91;1719619;83;21170;-76
2020/12/18 03:49:57;;;;;;;79.60;33.60;;;;;;;-0.16;88.57;101202.80;1738176;81;21161;-76
2020/12/18 03:52:26;;;;;;;86.83;35.27;;;;;;;-0.15;88.67;101204.47;1753580;82;21164;-79
2020/12/18 03:54:54;;;;;;;87.10;35.73;;;;;;;-0.15;88.61;101200.44;1716342;81;21158;-80
2020/12/18 03:57:41;;;;;;;87.33;38.17;;;;;;;-0.19;88.62;101199.08;1709815;84;21139;-77
2020/12/18 04:00:29;;;;;;;82.40;34.67;;;;;;;-0.21;88.73;101205.61;1720314;81;21209;-79
2020/12/18 04:02:58;;;;;;;76.73;34.13;;;;;;;-0.20;88.91;101202.75;1722300;83;21193;-77
2020/12/18 04:05:27;;;;;;;72.93;31.63;;;;;;;-0.16;88.93;101204.64;1697107;83;21151;-78
2020/12/18 04:07:55;;;;;;;67.10;29.40;;;;;;;-0.13;88.89;101207.02;1724025;83;21131;-77
2020/12/18 04:10:28;;;;;;;57.37;26.07;;;;;;;-0.11;88.81;101201.83;1719290;81;21236;-77
2020/12/18 04:12:58;;;;;;;60.97;26.90;;;;;;;-0.13;88.61;101209.72;1734765;82;21260;-77
2020/12/18 04:15:27;;;;;;;64.20;28.03;;;;;;;-0.13;88.65;101200.30;1707085;82;21151;-76
2020/12/18 04:17:55;;;;;;;67.17;28.65;;;;;;;-0.13;88.58;101203.81;1723818;83;21768;-77
2020/12/18 04:20:23;;;;;;;64.10;29.25;;;;;;;-0.14;88.58;101206.67;1705559;82;21142;-76
2020/12/18 04:22:53;;;;;;;60.97;25.93;;;;;;;-0.14;88.64;101212.05;1735296;82;21157;-76
2020/12/18 04:25:38;;;;;;;57.13;25.93;;;;;;;-0.14;88.74;101212.05;1630605;87;21310;-76
2020/12/18 04:28:05;;;;;;;52.83;24.52;;;;;;;-0.10;88.72;101211.57;1682074;84;21200;-76
2020/12/18 04:30:34;;;;;;;42.38;20.77;;;;;;;-0.08;88.56;101215.47;1709098;81;21266;-77
2020/12/18 04:33:02;;;;;;;33.50;15.20;;;;;;;-0.11;88.20;101211.25;1738954;82;21624;-79
2020/12/18 04:35:31;;;;;;;35.07;16.87;;;;;;;-0.10;87.90;101212.06;1723591;81;21162;-77
2020/12/18 04:38:02;;;;;;;38.67;18.27;;;;;;;-0.07;87.70;101217.14;1719056;82;21639;-80
2020/12/18 04:40:34;;;;;;;35.27;17.50;;;;;;;-0.04;87.42;101214.14;1722925;82;21157;-78
2020/12/18 04:43:04;;;;;;;37.57;19.13;;;;;;;-0.02;87.27;101220.20;1723003;81;21151;-79
2020/12/18 04:45:32;;;;;;;42.95;21.15;;;;;;;0.01;87.14;101215.86;1712931;82;21152;-80
2020/12/18 04:48:02;;;;;;;47.33;23.13;;;;;;;0.00;86.98;101216.89;1708892;82;21706;-79
2020/12/18 04:50:32;;;;;;;46.67;22.60;;;;;;;-0.01;87.01;101215.19;1753379;82;21249;-79
2020/12/18 04:53:03;;;;;;;39.63;18.93;;;;;;;-0.03;86.88;101214.50;1715275;82;21133;-77
2020/12/18 04:55:35;;;;;;;41.03;20.53;;;;;;;-0.07;86.71;101212.61;1708364;83;21276;-80
2020/12/18 04:58:16;;;;;;;40.83;20.03;;;;;;;-0.10;86.76;101219.64;1708351;82;21758;-78
2020/12/18 05:00:45;;;;;;;39.27;18.97;;;;;;;-0.08;86.83;101220.85;1692428;83;21288;-79
2020/12/18 05:03:34;;;;;;;36.27;18.60;;;;;;;-0.06;86.79;101226.91;1646220;85;21171;-77
2020/12/18 05:06:05;;;;;;;33.53;16.73;;;;;;;-0.03;86.63;101226.09;1723676;82;21823;-78
2020/12/18 05:08:34;;;;;;;26.07;12.60;;;;;;;-0.03;86.10;101230.65;1736373;81;21171;-77
2020/12/18 05:11:25;;;;;;;28.00;12.27;;;;;;;-0.06;85.60;101228.27;1723751;83;21594;-78
2020/12/18 05:13:59;;;;;;;22.07;10.50;;;;;;;-0.06;85.38;101229.11;1738448;81;21113;-78
2020/12/18 05:16:25;;;;;;;21.57;10.87;;;;;;;-0.04;85.13;101227.59;1725770;82;21292;-78
2020/12/18 05:19:10;;;;;;;24.13;11.13;;;;;;;-0.04;84.78;101230.29;1730440;82;21244;-78
2020/12/18 05:21:46;;;;;;;27.67;13.60;;;;;;;-0.06;84.34;101233.64;1694943;83;21128;-78
2020/12/18 05:24:15;;;;;;;34.13;17.70;;;;;;;-0.06;84.74;101237.68;1709954;82;21121;-79
2020/12/18 05:26:45;;;;;;;46.60;21.57;;;;;;;-0.08;85.21;101237.81;1712289;84;21596;-79
2020/12/18 05:29:13;;;;;;;48.23;23.80;;;;;;;-0.07;85.45;101246.74;1718897;82;21208;-80
2020/12/18 05:31:48;;;;;;;52.67;24.43;;;;;;;-0.06;85.65;101240.37;1748613;82;21143;-76
2020/12/18 05:34:23;;;;;;;54.00;24.20;;;;;;;-0.05;85.83;101247.42;1744475;81;21202;-76
2020/12/18 05:36:53;;;;;;;46.27;23.50;;;;;;;-0.03;86.03;101241.41;1722543;83;21154;-76
2020/12/18 05:39:23;;;;;;;49.63;22.50;;;;;;;-0.03;85.91;101248.14;1719508;81;21437;-77
2020/12/18 05:41:59;;;;;;;51.48;24.00;;;;;;;-0.04;86.00;101254.51;1696881;83;21287;-77
2020/12/18 05:44:31;;;;;;;52.70;25.17;;;;;;;-0.03;86.11;101253.00;1737661;81;21264;-79
2020/12/18 05:47:06;;;;;;;48.20;23.93;;;;;;;-0.03;86.13;101244.92;1719490;83;21185;-76
2020/12/18 05:49:38;;;;;;;48.00;24.77;;;;;;;-0.02;86.20;101246.63;1732871;82;21137;-77
2020/12/18 05:52:24;;;;;;;54.60;24.27;;;;;;;-0.02;86.25;101244.43;1723453;83;21430;-79
2020/12/18 05:55:02;;;;;;;54.47;25.50;;;;;;;0.00;86.35;101249.17;1692042;82;21179;-78
2020/12/18 05:57:39;;;;;;;67.00;28.90;;;;;;;0.01;86.26;101249.50;1724928;83;21160;-78
2020/12/18 06:00:09;;;;;;;75.90;32.77;;;;;;;0.00;86.46;101245.14;1723195;81;21153;-78
2020/12/18 06:03:01;;;;;;;101.60;40.55;;;;;;;0.00;86.45;101245.14;1719764;82;21156;-80
2020/12/18 06:05:32;;;;;;;90.73;37.07;;;;;;;0.02;86.46;101241.79;1722481;81;21129;-83
2020/12/18 06:08:18;;;;;;;98.77;39.47;;;;;;;0.03;86.35;101243.45;1710890;82;21573;-74
2020/12/18 06:10:51;;;;;;;59.85;27.82;;;;;;;0.03;86.37;101247.49;1734074;80;21185;-75
2020/12/18 06:13:21;;;;;;;57.07;26.17;;;;;;;0.03;86.09;101245.33;1723893;83;21113;-78
2020/12/18 06:15:51;;;;;;;69.37;30.23;;;;;;;0.06;86.09;101244.50;1722944;83;21584;-79
2020/12/18 06:18:21;;;;;;;58.97;27.60;;;;;;;0.09;85.89;101246.87;1695469;83;21600;-82
2020/12/18 06:20:49;;;;;;;57.62;28.45;;;;;;;0.10;85.73;101253.97;1724982;83;21177;-82
2020/12/18 06:23:17;;;;;;;63.30;29.90;;;;;;;0.08;85.68;101253.25;1671226;83;21182;-78
2020/12/18 06:25:50;;;;;;;53.77;25.13;;;;;;;0.08;85.69;101253.25;1705073;83;21164;-77
2020/12/18 06:28:23;;;;;;;51.03;23.20;;;;;;;0.07;85.55;101253.42;1719505;81;21606;-79
2020/12/18 06:31:00;;;;;;;67.63;32.33;;;;;;;0.08;85.61;101254.59;1722077;83;21293;-80
2020/12/18 06:33:56;;;;;;;66.10;28.67;;;;;;;0.11;85.63;101249.41;1704426;82;21153;-78
2020/12/18 06:36:52;;;;;;;77.87;34.27;;;;;;;0.15;85.60;101250.80;1731964;82;22055;-77
2020/12/18 06:39:34;;;;;;;84.40;36.50;;;;;;;0.15;85.44;101253.00;1735120;81;21156;-77
2020/12/18 06:42:17;;;;;;;84.37;37.13;;;;;;;0.18;85.61;101254.00;1681579;84;21307;-76
2020/12/18 06:45:08;;;;;;;74.93;32.97;;;;;;;0.22;85.75;101263.47;1732870;81;21222;-75
2020/12/18 06:47:55;;;;;;;74.50;32.00;;;;;;;0.24;85.62;101261.95;1731077;80;21725;-80
2020/12/18 06:50:23;;;;;;;78.70;32.48;;;;;;;0.21;84.96;101260.92;1739145;82;21593;-79
2020/12/18 06:53:06;;;;;;;87.27;33.37;;;;;;;0.19;85.25;101267.81;1721727;81;21169;-81
2020/12/18 06:55:42;;;;;;;83.83;34.60;;;;;;;0.20;85.28;101262.79;1664561;84;21254;-79
2020/12/18 06:58:25;;;;;;;70.43;30.03;;;;;;;0.21;84.89;101267.15;1737789;81;21149;-78
2020/12/18 07:00:57;;;;;;;61.07;26.00;;;;;;;0.24;84.96;101268.69;1723568;81;21159;-76
2020/12/18 07:03:43;;;;;;;44.90;20.27;;;;;;;0.27;84.88;101270.58;1696791;83;21163;-79
2020/12/18 07:06:27;;;;;;;41.27;18.47;;;;;;;0.30;84.59;101272.11;1739445;82;21260;-78
2020/12/18 07:08:56;;;;;;;32.30;16.00;;;;;;;0.31;84.43;101273.28;1726250;82;21271;-76
2020/12/18 07:11:24;;;;;;;29.60;15.37;;;;;;;0.36;84.37;101273.66;1723039;81;21133;-81
2020/12/18 07:13:54;;;;;;;32.10;15.33;;;;;;;0.38;84.08;101272.98;1697191;83;21565;-81
2020/12/18 07:16:29;;;;;;;26.05;12.98;;;;;;;0.42;84.10;101278.42;1738694;81;21545;-80
2020/12/18 07:18:59;;;;;;;22.93;12.50;;;;;;;0.47;83.88;101273.90;1753195;82;21197;-82
2020/12/18 07:21:27;;;;;;;26.33;12.40;;;;;;;0.50;83.71;101281.17;1725990;82;21145;-87
2020/12/18 07:23:55;;;;;;;25.75;13.03;;;;;;;0.54;83.51;101277.64;1753975;82;21161;-84
2020/12/18 07:26:23;;;;;;;25.75;13.58;;;;;;;0.57;83.41;101286.26;1737214;82;21149;-83
2020/12/18 07:28:52;;;;;;;23.32;12.13;;;;;;;0.58;83.32;101279.84;1753982;82;21141;-81
2020/12/18 07:31:22;;;;;;;23.18;11.85;;;;;;;0.60;83.14;101287.30;1738728;81;21691;-82
2020/12/18 07:33:55;;;;;;;24.10;12.97;;;;;;;0.59;83.16;101286.94;1739199;82;21202;-82
2020/12/18 07:36:26;;;;;;;24.33;12.13;;;;;;;0.59;83.12;101289.63;1724218;81;21207;-80
2020/12/18 07:38:57;;;;;;;28.40;14.30;;;;;;;0.58;83.13;101293.84;1739417;82;21193;-81
2020/12/18 07:41:27;;;;;;;30.33;14.50;;;;;;;0.59;83.04;101299.06;1722865;81;21148;-81
2020/12/18 07:44:08;;;;;;;26.43;13.77;;;;;;;0.59;83.12;101298.21;1739169;82;21761;-81
2020/12/18 07:46:38;;;;;;;30.93;15.93;;;;;;;0.58;82.81;101297.36;1728147;81;21267;-79
2020/12/18 07:49:08;;;;;;;27.17;13.50;;;;;;;0.56;82.58;101302.06;1747878;82;21151;-82
2020/12/18 07:51:38;;;;;;;25.30;14.10;;;;;;;0.48;82.28;101302.01;1697884;82;21160;-83
2020/12/18 07:54:06;;;;;;;31.52;15.32;;;;;;;0.43;82.64;101296.78;1723835;82;21235;-83
2020/12/18 07:56:36;;;;;;;31.80;15.40;;;;;;;0.42;82.72;101304.00;1723383;82;21229;-77
2020/12/18 07:59:07;;;;;;;31.07;16.48;;;;;;;0.42;82.80;101305.34;1723532;81;21703;-78
2020/12/18 08:01:37;;;;;;;23.50;11.77;;;;;;;0.43;82.95;101299.47;1723368;83;21195;-77
2020/12/18 08:04:10;;;;;;;23.77;12.47;;;;;;;0.44;83.05;101302.48;1723398;81;21182;-77
2020/12/18 08:06:39;;;;;;;25.97;13.00;;;;;;;0.46;82.73;101301.33;1743399;82;21129;-79
2020/12/18 08:09:09;;;;;;;22.47;13.00;;;;;;;0.50;82.74;101302.72;1716518;81;21159;-81
2020/12/18 08:11:45;;;;;;;27.73;14.27;;;;;;;0.48;82.56;101301.19;1738775;82;21801;-79
2020/12/18 08:14:14;;;;;;;33.53;16.47;;;;;;;0.43;82.54;101296.25;1747176;80;21134;-77
2020/12/18 08:16:42;;;;;;;30.80;16.40;;;;;;;0.38;82.79;101294.53;1713351;84;21277;-79
2020/12/18 08:19:11;;;;;;;34.98;17.60;;;;;;;0.37;83.06;101294.70;1702212;82;21121;-84
2020/12/18 08:21:45;;;;;;;32.53;17.53;;;;;;;0.41;83.26;101294.72;1698835;83;21267;-85
2020/12/18 08:24:31;;;;;;;26.70;12.87;;;;;;;0.47;83.42;101302.17;1724561;81;21224;-82
2020/12/18 08:27:17;;;;;;;27.03;13.53;;;;;;;0.54;83.12;101302.73;1740063;82;21197;-83
2020/12/18 08:29:46;;;;;;;25.97;13.70;;;;;;;0.58;82.88;101298.70;1723475;81;21188;-77
2020/12/18 08:32:28;;;;;;;24.50;12.85;;;;;;;0.62;82.89;101301.44;1739224;82;21201;-78
2020/12/18 08:35:06;;;;;;;29.50;14.27;;;;;;;0.64;82.86;101299.92;1723625;81;21568;-80
2020/12/18 08:37:34;;;;;;;28.13;13.80;;;;;;;0.61;82.72;101301.09;1739465;82;21307;-79
2020/12/18 08:40:03;;;;;;;27.62;14.15;;;;;;;0.62;82.89;101305.98;1723498;81;21202;-79
2020/12/18 08:42:30;;;;;;;26.10;13.93;;;;;;;0.60;82.52;101299.42;1697460;83;21138;-80
2020/12/18 08:44:58;;;;;;;25.80;12.70;;;;;;;0.57;82.46;101298.38;1696769;83;21198;-77
2020/12/18 08:47:28;;;;;;;27.00;13.83;;;;;;;0.54;82.13;101301.39;1698025;83;21170;-82
2020/12/18 08:49:57;;;;;;;30.60;15.90;;;;;;;0.52;82.47;101290.43;1727162;81;21617;-81
2020/12/18 08:52:27;;;;;;;32.13;16.87;;;;;;;0.49;82.61;101295.63;1738832;82;21137;-84
2020/12/18 08:55:05;;;;;;;32.43;17.13;;;;;;;0.48;82.96;101293.92;1753252;81;21259;-85
2020/12/18 08:57:36;;;;;;;35.67;18.07;;;;;;;0.46;83.02;101291.90;1710063;81;21216;-83
2020/12/18 09:00:12;;;;;;;31.63;16.40;;;;;;;0.50;83.27;101297.33;1724011;83;21179;-81
2020/12/18 09:02:51;;;;;;;34.33;16.93;;;;;;;0.53;83.16;101298.86;1710244;83;21596;-81
2020/12/18 09:05:33;;;;;;;35.70;18.57;;;;;;;0.55;82.99;101302.23;1726967;82;21355;-81
2020/12/18 09:08:16;;;;;;;34.40;17.60;;;;;;;0.58;82.99;101299.23;1710125;82;21133;-83
2020/12/18 09:10:47;;;;;;;28.73;15.77;;;;;;;0.57;83.06;101301.57;1723394;83;21164;-84
2020/12/18 09:13:21;;;;;;;34.73;16.63;;;;;;;0.55;83.07;101295.01;1723765;81;21274;-82
2020/12/18 09:16:03;;;;;;;25.20;14.30;;;;;;;0.58;83.28;101289.80;1724504;83;21182;-84
2020/12/18 09:18:41;;;;;;;30.60;16.17;;;;;;;0.59;82.87;101292.83;1753235;81;21315;-79
2020/12/18 09:21:14;;;;;;;30.37;14.75;;;;;;;0.60;83.10;101288.64;1738909;82;21680;-79
2020/12/18 09:23:44;;;;;;;32.50;16.97;;;;;;;0.62;83.01;101283.08;1752185;81;21161;-78
2020/12/18 09:26:23;;;;;;;27.43;14.63;;;;;;;0.66;82.82;101283.09;1751676;82;21145;-79
2020/12/18 09:28:50;;;;;;;33.30;17.10;;;;;;;0.69;82.68;101288.17;1712521;82;21168;-77
2020/12/18 09:31:19;;;;;;;34.92;18.65;;;;;;;0.71;82.52;101285.33;1738936;82;21164;-83
2020/12/18 09:33:47;;;;;;;32.95;18.32;;;;;;;0.75;82.73;101284.00;1729175;80;21294;-80
2020/12/18 09:36:16;;;;;;;39.48;17.70;;;;;;;0.78;82.88;101284.53;1739779;82;21169;-76
2020/12/18 09:38:49;;;;;;;34.27;16.17;;;;;;;0.82;82.67;101289.08;1711269;82;21609;-77
2020/12/18 09:41:20;;;;;;;29.27;15.63;;;;;;;0.81;82.57;101278.80;1728547;82;21630;-79
2020/12/18 09:43:48;;;;;;;25.90;13.30;;;;;;;0.84;82.44;101283.02;1731862;81;21182;-77
2020/12/18 09:46:18;;;;;;;26.25;13.43;;;;;;;0.82;81.55;101278.30;1730714;81;21170;-83
2020/12/18 09:48:47;;;;;;;27.23;14.20;;;;;;;0.82;81.89;101281.00;1729073;81;21128;-82
2020/12/18 09:51:16;;;;;;;31.20;15.23;;;;;;;0.85;81.88;101276.64;1724339;83;21596;-79
2020/12/18 09:53:45;;;;;;;27.50;13.50;;;;;;;0.87;81.85;101270.58;1724520;81;21137;-80
2020/12/18 09:56:14;;;;;;;25.88;13.25;;;;;;;0.90;81.50;101273.80;1727926;82;21160;-83
2020/12/18 09:58:43;;;;;;;24.53;12.93;;;;;;;0.91;81.02;101269.27;1721512;81;21890;-78
2020/12/18 10:01:16;;;;;;;28.53;13.93;;;;;;;0.92;80.96;101265.55;1726297;82;21212;-80
2020/12/18 10:03:47;;;;;;;25.50;14.50;;;;;;;0.94;80.97;101265.73;1727236;81;21155;-86
2020/12/18 10:06:16;;;;;;;28.33;15.30;;;;;;;0.92;81.22;101269.59;1728081;82;21683;-76
2020/12/18 10:08:45;;;;;;;25.27;13.30;;;;;;;0.90;81.01;101258.98;1724182;82;21157;-78
2020/12/18 10:11:14;;;;;;;26.97;14.60;;;;;;;0.89;81.36;101259.12;1728531;81;21169;-80
2020/12/18 10:13:45;;;;;;;25.97;14.30;;;;;;;0.93;81.44;101257.81;1697507;82;21134;-75
2020/12/18 10:16:13;;;;;;;26.53;15.17;;;;;;;0.97;81.37;101257.82;1716878;81;21209;-75
2020/12/18 10:18:41;;;;;;;29.07;17.02;;;;;;;0.97;81.46;101247.89;1727834;82;21164;-73
2020/12/18 10:21:09;;;;;;;25.17;14.60;;;;;;;0.99;81.44;101247.22;1724555;81;21184;-77
2020/12/18 10:23:39;;;;;;;25.45;12.43;;;;;;;1.02;81.58;101248.25;1728868;82;21129;-81
2020/12/18 10:26:07;;;;;;;23.00;12.07;;;;;;;1.00;81.02;101250.77;1727253;81;21155;-78
2020/12/18 10:28:38;;;;;;;24.13;11.97;;;;;;;0.97;80.09;101251.08;1735254;81;21153;-81
2020/12/18 10:31:06;;;;;;;22.87;11.60;;;;;;;0.97;80.21;101251.08;1729746;81;21145;-81
2020/12/18 10:33:35;;;;;;;25.40;12.27;;;;;;;0.96;80.33;101244.02;1726717;82;21176;-77
2020/12/18 10:36:03;;;;;;;20.40;11.12;;;;;;;0.91;79.41;101241.79;1728026;81;21351;-80
2020/12/18 10:38:31;;;;;;;22.60;11.33;;;;;;;0.91;79.93;101243.66;1725519;81;21681;-78
2020/12/18 10:40:59;;;;;;;22.67;12.15;;;;;;;0.91;79.85;101243.13;1690891;81;21220;-84
2020/12/18 10:43:27;;;;;;;21.30;11.90;;;;;;;0.97;79.92;101241.65;1728824;82;21166;-84
2020/12/18 10:45:55;;;;;;;24.30;12.55;;;;;;;1.03;79.93;101240.52;1722332;82;21162;-77
2020/12/18 10:48:24;;;;;;;16.48;8.65;;;;;;;1.05;79.70;101245.73;1720625;81;21641;-82
2020/12/18 10:50:52;;;;;;;14.27;7.57;;;;;;;1.08;79.14;101241.36;1735287;82;21161;-77
2020/12/18 10:53:20;;;;;;;15.98;7.47;;;;;;;1.06;77.53;101239.34;1739158;81;21159;-83
2020/12/18 10:55:48;;;;;;;23.15;13.58;;;;;;;1.04;77.37;101235.94;1730585;81;21459;-83
2020/12/18 10:58:23;;;;;;;21.02;11.60;;;;;;;1.02;77.95;101236.61;1689016;82;21669;-84
2020/12/18 11:00:53;;;;;;;19.50;9.17;;;;;;;1.07;78.31;101239.66;1730682;80;21137;-82
2020/12/18 11:03:21;;;;;;;17.07;8.80;;;;;;;1.08;77.76;101241.36;1728758;81;21248;-82
2020/12/18 11:05:49;;;;;;;17.30;8.20;;;;;;;1.07;77.37;101238.31;1703962;82;21222;-84
2020/12/18 11:08:17;;;;;;;20.23;9.80;;;;;;;0.98;76.35;101239.30;1714466;81;21152;-80
2020/12/18 11:10:47;;;;;;;16.73;8.13;;;;;;;0.87;76.81;101234.20;1747088;82;21608;-81
2020/12/18 11:13:15;;;;;;;16.05;8.03;;;;;;;0.82;76.79;101240.58;1721301;82;21133;-85
2020/12/18 11:15:43;;;;;;;16.48;7.92;;;;;;;0.76;76.97;101231.28;1739066;82;21531;-77
2020/12/18 11:18:11;;;;;;;13.50;6.10;;;;;;;0.75;77.68;101240.89;1708989;82;21152;-79
2020/12/18 11:20:45;;;;;;;14.33;7.53;;;;;;;0.77;77.17;101241.56;1715504;83;21204;-86
2020/12/18 11:23:13;;;;;;;15.93;8.37;;;;;;;0.80;77.45;101243.94;1719508;81;21160;-82
2020/12/18 11:25:41;;;;;;;13.72;7.53;;;;;;;0.82;77.81;101244.61;1720813;81;21573;-81
2020/12/18 11:28:09;;;;;;;16.25;7.90;;;;;;;0.83;78.01;101241.78;1714027;82;21166;-82
2020/12/18 11:30:37;;;;;;;10.68;5.90;;;;;;;0.86;78.04;101241.43;1726845;81;21512;-82
2020/12/18 11:33:05;;;;;;;15.78;7.97;;;;;;;0.89;77.60;101244.30;1724137;82;21161;-79
2020/12/18 11:35:34;;;;;;;15.80;7.57;;;;;;;0.90;77.23;101245.51;1723068;81;21140;-83